sensor_id;sensor_type;location;lat;lon;timestamp;pressure;altitude;pressure_sealevel;temperature;humidity
12182;BME280;6154;51.550;12.138;2023-07-13T00:01:25;100176.63;;;25.14;38.71
12182;BME280;6154;51.550;12.138;2023-07-13T00:03:54;100180.75;;;25.10;39.18
12182;BME280;6154;51.550;12.138;2023-07-13T00:06:23;100165.53;;;25.09;38.57
12182;BME280;6154;51.550;12.138;2023-07-13T00:08:51;100178.03;;;25.10;38.93
12182;BME280;6154;51.550;12.138;2023-07-13T00:11:20;100187.00;;;25.11;38.82
12182;BME280;6154;51.550;12.138;2023-07-13T00:13:48;100191.22;;;25.13;38.55
12182;BME280;6154;51.550;12.138;2023-07-13T00:16:16;100197.47;;;25.14;38.76
12182;BME280;6154;51.550;12.138;2023-07-13T00:18:47;100200.56;;;25.11;39.21
12182;BME280;6154;51.550;12.138;2023-07-13T00:21:16;100205.97;;;25.11;39.50
12182;BME280;6154;51.550;12.138;2023-07-13T00:23:44;100193.72;;;25.15;39.33
12182;BME280;6154;51.550;12.138;2023-07-13T00:26:12;100200.03;;;25.15;39.01
12182;BME280;6154;51.550;12.138;2023-07-13T00:28:41;100203.28;;;24.88;40.70
12182;BME280;6154;51.550;12.138;2023-07-13T00:31:10;100212.25;;;24.88;41.07
12182;BME280;6154;51.550;12.138;2023-07-13T00:33:40;100214.41;;;24.93;40.21
12182;BME280;6154;51.550;12.138;2023-07-13T00:36:10;100217.03;;;25.01;39.73
12182;BME280;6154;51.550;12.138;2023-07-13T00:38:39;100206.56;;;24.98;39.82
12182;BME280;6154;51.550;12.138;2023-07-13T00:41:08;100212.72;;;24.92;39.79
12182;BME280;6154;51.550;12.138;2023-07-13T00:43:37;100222.84;;;24.75;41.26
12182;BME280;6154;51.550;12.138;2023-07-13T00:46:14;100225.59;;;24.90;39.83
12182;BME280;6154;51.550;12.138;2023-07-13T00:48:44;100239.34;;;24.65;42.52
12182;BME280;6154;51.550;12.138;2023-07-13T00:51:20;100238.66;;;24.86;40.30
12182;BME280;6154;51.550;12.138;2023-07-13T00:53:49;100244.84;;;24.72;41.64
12182;BME280;6154;51.550;12.138;2023-07-13T00:56:19;100245.62;;;24.81;40.69
12182;BME280;6154;51.550;12.138;2023-07-13T00:58:47;100242.28;;;24.79;40.09
12182;BME280;6154;51.550;12.138;2023-07-13T01:01:17;100242.66;;;24.76;40.18
12182;BME280;6154;51.550;12.138;2023-07-13T01:03:46;100253.75;;;24.81;39.75
12182;BME280;6154;51.550;12.138;2023-07-13T01:06:14;100255.62;;;24.80;40.23
12182;BME280;6154;51.550;12.138;2023-07-13T01:08:46;100250.69;;;24.84;39.57
12182;BME280;6154;51.550;12.138;2023-07-13T01:11:19;100242.69;;;24.90;39.57
12182;BME280;6154;51.550;12.138;2023-07-13T01:13:48;100236.81;;;24.87;40.20
12182;BME280;6154;51.550;12.138;2023-07-13T01:16:22;100235.78;;;24.88;39.51
12182;BME280;6154;51.550;12.138;2023-07-13T01:18:52;100239.12;;;24.90;40.59
12182;BME280;6154;51.550;12.138;2023-07-13T01:21:23;100234.44;;;24.84;39.66
12182;BME280;6154;51.550;12.138;2023-07-13T01:23:51;100234.53;;;24.76;40.28
12182;BME280;6154;51.550;12.138;2023-07-13T01:26:20;100229.59;;;24.79;39.75
12182;BME280;6154;51.550;12.138;2023-07-13T01:28:48;100232.53;;;24.70;40.04
12182;BME280;6154;51.550;12.138;2023-07-13T01:31:17;100228.50;;;24.65;39.98
12182;BME280;6154;51.550;12.138;2023-07-13T01:33:45;100231.78;;;24.53;41.30
12182;BME280;6154;51.550;12.138;2023-07-13T01:36:14;100236.38;;;24.52;40.07
12182;BME280;6154;51.550;12.138;2023-07-13T01:38:44;100235.84;;;24.26;41.98
12182;BME280;6154;51.550;12.138;2023-07-13T01:41:12;100242.56;;;24.30;41.67
12182;BME280;6154;51.550;12.138;2023-07-13T01:43:41;100244.94;;;24.25;40.99
12182;BME280;6154;51.550;12.138;2023-07-13T01:46:09;100248.69;;;24.24;40.98
12182;BME280;6154;51.550;12.138;2023-07-13T01:48:50;100252.41;;;24.23;40.95
12182;BME280;6154;51.550;12.138;2023-07-13T01:51:19;100256.78;;;24.24;40.63
12182;BME280;6154;51.550;12.138;2023-07-13T01:53:49;100269.00;;;24.20;41.38
12182;BME280;6154;51.550;12.138;2023-07-13T01:56:18;100265.94;;;24.23;40.89
12182;BME280;6154;51.550;12.138;2023-07-13T01:58:46;100263.94;;;24.17;41.09
12182;BME280;6154;51.550;12.138;2023-07-13T02:01:15;100265.13;;;24.14;41.12
12182;BME280;6154;51.550;12.138;2023-07-13T02:03:43;100253.81;;;24.11;41.52
12182;BME280;6154;51.550;12.138;2023-07-13T02:06:11;100255.34;;;24.05;41.47
12182;BME280;6154;51.550;12.138;2023-07-13T02:08:40;100247.41;;;24.03;41.75
12182;BME280;6154;51.550;12.138;2023-07-13T02:11:11;100246.91;;;24.08;41.45
12182;BME280;6154;51.550;12.138;2023-07-13T02:13:39;100238.81;;;24.08;41.63
12182;BME280;6154;51.550;12.138;2023-07-13T02:16:08;100239.00;;;23.98;41.61
12182;BME280;6154;51.550;12.138;2023-07-13T02:18:37;100236.19;;;23.84;42.35
12182;BME280;6154;51.550;12.138;2023-07-13T02:21:05;100241.25;;;23.87;41.54
12182;BME280;6154;51.550;12.138;2023-07-13T02:23:34;100255.81;;;23.86;41.67
12182;BME280;6154;51.550;12.138;2023-07-13T02:26:03;100248.00;;;23.91;41.64
12182;BME280;6154;51.550;12.138;2023-07-13T02:28:33;100257.28;;;23.96;41.70
12182;BME280;6154;51.550;12.138;2023-07-13T02:31:06;100247.41;;;24.03;41.53
12182;BME280;6154;51.550;12.138;2023-07-13T02:33:35;100247.25;;;24.05;42.40
12182;BME280;6154;51.550;12.138;2023-07-13T02:36:04;100252.00;;;24.03;41.55
12182;BME280;6154;51.550;12.138;2023-07-13T02:38:33;100259.62;;;23.99;41.61
12182;BME280;6154;51.550;12.138;2023-07-13T02:41:03;100259.66;;;23.91;41.59
12182;BME280;6154;51.550;12.138;2023-07-13T02:43:31;100268.31;;;23.87;41.67
12182;BME280;6154;51.550;12.138;2023-07-13T02:46:01;100258.34;;;23.79;41.75
12182;BME280;6154;51.550;12.138;2023-07-13T02:48:36;100250.09;;;23.72;41.94
12182;BME280;6154;51.550;12.138;2023-07-13T02:51:06;100257.69;;;23.69;41.87
12182;BME280;6154;51.550;12.138;2023-07-13T02:53:35;100257.37;;;23.64;42.02
12182;BME280;6154;51.550;12.138;2023-07-13T02:56:04;100252.50;;;23.59;41.97
12182;BME280;6154;51.550;12.138;2023-07-13T02:58:33;100253.31;;;23.51;42.81
12182;BME280;6154;51.550;12.138;2023-07-13T03:01:08;100252.31;;;23.44;42.38
12182;BME280;6154;51.550;12.138;2023-07-13T03:03:37;100252.66;;;23.41;43.27
12182;BME280;6154;51.550;12.138;2023-07-13T03:06:06;100263.16;;;23.36;42.27
12182;BME280;6154;51.550;12.138;2023-07-13T03:08:36;100253.69;;;23.32;42.48
12182;BME280;6154;51.550;12.138;2023-07-13T03:11:07;100256.56;;;23.31;42.38
12182;BME280;6154;51.550;12.138;2023-07-13T03:13:37;100255.22;;;23.27;42.51
12182;BME280;6154;51.550;12.138;2023-07-13T03:16:07;100263.66;;;23.23;42.80
12182;BME280;6154;51.550;12.138;2023-07-13T03:18:37;100255.06;;;23.20;42.74
12182;BME280;6154;51.550;12.138;2023-07-13T03:21:06;100258.59;;;23.20;42.94
12182;BME280;6154;51.550;12.138;2023-07-13T03:23:35;100256.25;;;23.26;42.82
12182;BME280;6154;51.550;12.138;2023-07-13T03:26:05;100261.78;;;23.24;43.22
12182;BME280;6154;51.550;12.138;2023-07-13T03:28:34;100260.47;;;23.28;42.87
12182;BME280;6154;51.550;12.138;2023-07-13T03:31:06;100257.56;;;23.38;42.79
12182;BME280;6154;51.550;12.138;2023-07-13T03:33:36;100268.38;;;23.38;42.80
12182;BME280;6154;51.550;12.138;2023-07-13T03:36:06;100266.53;;;23.30;43.82
12182;BME280;6154;51.550;12.138;2023-07-13T03:38:35;100272.41;;;23.34;42.90
12182;BME280;6154;51.550;12.138;2023-07-13T03:41:04;100278.66;;;23.34;43.29
12182;BME280;6154;51.550;12.138;2023-07-13T03:43:31;100283.41;;;23.32;43.07
12182;BME280;6154;51.550;12.138;2023-07-13T03:45:59;100285.25;;;23.32;43.06
12182;BME280;6154;51.550;12.138;2023-07-13T03:48:28;100283.91;;;23.36;43.28
12182;BME280;6154;51.550;12.138;2023-07-13T03:50:57;100289.47;;;23.42;43.44
12182;BME280;6154;51.550;12.138;2023-07-13T03:53:26;100291.50;;;23.48;42.99
12182;BME280;6154;51.550;12.138;2023-07-13T03:55:54;100297.75;;;23.49;43.03
12182;BME280;6154;51.550;12.138;2023-07-13T03:58:30;100299.59;;;23.40;43.21
12182;BME280;6154;51.550;12.138;2023-07-13T04:01:00;100297.75;;;23.33;44.40
12182;BME280;6154;51.550;12.138;2023-07-13T04:03:29;100302.84;;;23.36;43.36
12182;BME280;6154;51.550;12.138;2023-07-13T04:06:02;100296.59;;;23.35;43.17
12182;BME280;6154;51.550;12.138;2023-07-13T04:08:34;100304.84;;;23.34;43.65
12182;BME280;6154;51.550;12.138;2023-07-13T04:11:04;100305.19;;;23.31;43.63
12182;BME280;6154;51.550;12.138;2023-07-13T04:13:33;100300.63;;;23.31;43.54
12182;BME280;6154;51.550;12.138;2023-07-13T04:16:01;100307.72;;;23.32;43.46
12182;BME280;6154;51.550;12.138;2023-07-13T04:18:30;100307.72;;;23.32;43.58
12182;BME280;6154;51.550;12.138;2023-07-13T04:20:58;100305.69;;;23.34;43.64
12182;BME280;6154;51.550;12.138;2023-07-13T04:23:28;100309.22;;;23.35;43.75
12182;BME280;6154;51.550;12.138;2023-07-13T04:25:56;100309.91;;;23.37;43.98
12182;BME280;6154;51.550;12.138;2023-07-13T04:28:25;100311.44;;;23.39;43.88
12182;BME280;6154;51.550;12.138;2023-07-13T04:30:54;100319.19;;;23.42;43.88
12182;BME280;6154;51.550;12.138;2023-07-13T04:33:23;100316.84;;;23.47;43.97
12182;BME280;6154;51.550;12.138;2023-07-13T04:35:53;100311.06;;;23.50;44.05
12182;BME280;6154;51.550;12.138;2023-07-13T04:38:24;100311.41;;;23.56;43.72
12182;BME280;6154;51.550;12.138;2023-07-13T04:40:58;100312.59;;;23.61;43.75
12182;BME280;6154;51.550;12.138;2023-07-13T04:43:27;100308.22;;;23.68;44.14
12182;BME280;6154;51.550;12.138;2023-07-13T04:45:56;100310.38;;;23.73;43.77
12182;BME280;6154;51.550;12.138;2023-07-13T04:48:25;100309.72;;;23.79;43.69
12182;BME280;6154;51.550;12.138;2023-07-13T04:50:57;100314.44;;;23.85;43.46
12182;BME280;6154;51.550;12.138;2023-07-13T04:53:27;100320.50;;;23.95;44.78
12182;BME280;6154;51.550;12.138;2023-07-13T04:55:58;100317.25;;;24.00;43.47
12182;BME280;6154;51.550;12.138;2023-07-13T04:58:27;100320.41;;;24.12;43.66
12182;BME280;6154;51.550;12.138;2023-07-13T05:00:59;100315.16;;;24.18;43.48
12182;BME280;6154;51.550;12.138;2023-07-13T05:03:29;100315.16;;;24.18;44.95
12182;BME280;6154;51.550;12.138;2023-07-13T05:05:59;100312.25;;;24.28;43.51
12182;BME280;6154;51.550;12.138;2023-07-13T05:08:28;100314.63;;;24.31;43.94
12182;BME280;6154;51.550;12.138;2023-07-13T05:11:00;100318.31;;;24.30;44.25
12182;BME280;6154;51.550;12.138;2023-07-13T05:13:29;100314.63;;;24.31;45.42
12182;BME280;6154;51.550;12.138;2023-07-13T05:15:58;100311.03;;;24.39;44.31
12182;BME280;6154;51.550;12.138;2023-07-13T05:18:27;100320.28;;;24.44;45.26
12182;BME280;6154;51.550;12.138;2023-07-13T05:20:58;100317.22;;;24.55;43.86
12182;BME280;6154;51.550;12.138;2023-07-13T05:23:26;100319.66;;;24.65;43.96
12182;BME280;6154;51.550;12.138;2023-07-13T05:25:55;100312.06;;;24.69;44.36
12182;BME280;6154;51.550;12.138;2023-07-13T05:28:26;100318.75;;;24.81;43.93
12182;BME280;6154;51.550;12.138;2023-07-13T05:30:56;100319.34;;;24.91;44.08
12182;BME280;6154;51.550;12.138;2023-07-13T05:33:26;100321.53;;;24.96;43.99
12182;BME280;6154;51.550;12.138;2023-07-13T05:35:54;100316.06;;;25.04;43.98
12182;BME280;6154;51.550;12.138;2023-07-13T05:38:22;100318.59;;;25.05;44.45
12182;BME280;6154;51.550;12.138;2023-07-13T05:40:53;100322.19;;;25.20;43.73
12182;BME280;6154;51.550;12.138;2023-07-13T05:43:22;100317.16;;;25.17;44.67
12182;BME280;6154;51.550;12.138;2023-07-13T05:45:53;100334.28;;;25.33;43.98
12182;BME280;6154;51.550;12.138;2023-07-13T05:48:22;100334.22;;;25.41;44.63
12182;BME280;6154;51.550;12.138;2023-07-13T05:50:51;100336.81;;;25.57;43.49
12182;BME280;6154;51.550;12.138;2023-07-13T05:53:19;100333.72;;;25.60;44.02
12182;BME280;6154;51.550;12.138;2023-07-13T05:55:48;100336.03;;;25.63;44.25
12182;BME280;6154;51.550;12.138;2023-07-13T05:58:17;100337.59;;;25.81;44.02
12182;BME280;6154;51.550;12.138;2023-07-13T06:00:46;100331.91;;;25.90;43.84
12182;BME280;6154;51.550;12.138;2023-07-13T06:03:16;100339.50;;;26.10;42.99
12182;BME280;6154;51.550;12.138;2023-07-13T06:05:45;100338.91;;;26.14;43.09
12182;BME280;6154;51.550;12.138;2023-07-13T06:08:13;100334.34;;;26.29;42.88
12182;BME280;6154;51.550;12.138;2023-07-13T06:10:43;100344.16;;;26.45;42.58
12182;BME280;6154;51.550;12.138;2023-07-13T06:13:11;100350.59;;;26.59;42.58
12182;BME280;6154;51.550;12.138;2023-07-13T06:15:39;100344.09;;;26.75;42.47
12182;BME280;6154;51.550;12.138;2023-07-13T06:18:08;100344.28;;;26.73;42.81
12182;BME280;6154;51.550;12.138;2023-07-13T06:20:37;100334.94;;;26.76;42.35
12182;BME280;6154;51.550;12.138;2023-07-13T06:23:05;100343.66;;;26.71;42.79
12182;BME280;6154;51.550;12.138;2023-07-13T06:25:34;100344.78;;;26.77;42.31
12182;BME280;6154;51.550;12.138;2023-07-13T06:28:02;100341.75;;;26.86;42.00
12182;BME280;6154;51.550;12.138;2023-07-13T06:30:30;100345.91;;;27.04;41.80
12182;BME280;6154;51.550;12.138;2023-07-13T06:33:00;100348.78;;;27.17;41.42
12182;BME280;6154;51.550;12.138;2023-07-13T06:35:28;100345.13;;;27.31;41.37
12182;BME280;6154;51.550;12.138;2023-07-13T06:37:58;100338.84;;;27.31;41.46
12182;BME280;6154;51.550;12.138;2023-07-13T06:40:27;100341.53;;;27.52;41.23
12182;BME280;6154;51.550;12.138;2023-07-13T06:42:57;100341.66;;;27.65;41.07
12182;BME280;6154;51.550;12.138;2023-07-13T06:45:25;100351.38;;;27.74;40.72
12182;BME280;6154;51.550;12.138;2023-07-13T06:47:53;100352.75;;;27.92;40.65
12182;BME280;6154;51.550;12.138;2023-07-13T06:50:22;100353.88;;;28.04;40.48
12182;BME280;6154;51.550;12.138;2023-07-13T06:52:50;100357.06;;;28.08;40.13
12182;BME280;6154;51.550;12.138;2023-07-13T06:55:21;100357.34;;;28.26;39.76
12182;BME280;6154;51.550;12.138;2023-07-13T06:57:49;100356.16;;;28.00;39.55
12182;BME280;6154;51.550;12.138;2023-07-13T07:00:17;100356.28;;;28.20;39.60
12182;BME280;6154;51.550;12.138;2023-07-13T07:02:46;100358.81;;;28.22;39.57
12182;BME280;6154;51.550;12.138;2023-07-13T07:05:14;100362.66;;;28.34;39.41
12182;BME280;6154;51.550;12.138;2023-07-13T07:07:43;100363.59;;;28.48;39.18
12182;BME280;6154;51.550;12.138;2023-07-13T07:10:11;100364.72;;;28.67;38.93
12182;BME280;6154;51.550;12.138;2023-07-13T07:12:41;100364.97;;;28.85;38.80
12182;BME280;6154;51.550;12.138;2023-07-13T07:15:09;100370.06;;;29.01;38.65
12182;BME280;6154;51.550;12.138;2023-07-13T07:17:38;100363.75;;;28.94;37.68
12182;BME280;6154;51.550;12.138;2023-07-13T07:20:07;100369.22;;;28.94;37.37
12182;BME280;6154;51.550;12.138;2023-07-13T07:22:36;100368.44;;;29.20;37.76
12182;BME280;6154;51.550;12.138;2023-07-13T07:25:04;100372.22;;;29.45;37.58
12182;BME280;6154;51.550;12.138;2023-07-13T07:27:33;100372.87;;;29.41;37.07
12182;BME280;6154;51.550;12.138;2023-07-13T07:30:07;100368.06;;;29.69;37.25
12182;BME280;6154;51.550;12.138;2023-07-13T07:32:38;100372.28;;;29.79;35.63
12182;BME280;6154;51.550;12.138;2023-07-13T07:35:09;100362.56;;;29.96;36.71
12182;BME280;6154;51.550;12.138;2023-07-13T07:37:37;100372.28;;;29.72;35.84
12182;BME280;6154;51.550;12.138;2023-07-13T07:40:09;100356.53;;;29.81;35.54
12182;BME280;6154;51.550;12.138;2023-07-13T07:42:40;100364.28;;;30.10;36.41
12182;BME280;6154;51.550;12.138;2023-07-13T07:45:10;100359.59;;;30.37;35.78
12182;BME280;6154;51.550;12.138;2023-07-13T07:47:39;100357.03;;;30.42;36.14
12182;BME280;6154;51.550;12.138;2023-07-13T07:50:09;100362.47;;;30.49;36.09
12182;BME280;6154;51.550;12.138;2023-07-13T07:52:37;100365.78;;;30.64;36.05
12182;BME280;6154;51.550;12.138;2023-07-13T07:55:07;100366.59;;;30.78;35.84
12182;BME280;6154;51.550;12.138;2023-07-13T07:57:38;100372.19;;;30.89;35.11
12182;BME280;6154;51.550;12.138;2023-07-13T08:00:12;100365.91;;;30.82;35.54
12182;BME280;6154;51.550;12.138;2023-07-13T08:02:47;100370.69;;;30.94;35.00
12182;BME280;6154;51.550;12.138;2023-07-13T08:05:18;100368.19;;;30.85;35.23
12182;BME280;6154;51.550;12.138;2023-07-13T08:08:03;100374.94;;;30.89;34.32
12182;BME280;6154;51.550;12.138;2023-07-13T08:10:35;100373.38;;;31.07;35.25
12182;BME280;6154;51.550;12.138;2023-07-13T08:13:03;100372.94;;;31.41;34.67
12182;BME280;6154;51.550;12.138;2023-07-13T08:15:37;100375.47;;;31.36;34.20
12182;BME280;6154;51.550;12.138;2023-07-13T08:18:06;100369.66;;;31.58;34.50
12182;BME280;6154;51.550;12.138;2023-07-13T08:20:36;100376.16;;;31.57;34.81
12182;BME280;6154;51.550;12.138;2023-07-13T08:23:04;100373.66;;;31.55;34.01
12182;BME280;6154;51.550;12.138;2023-07-13T08:25:33;100372.44;;;31.51;33.79
12182;BME280;6154;51.550;12.138;2023-07-13T08:28:02;100381.81;;;31.62;34.66
12182;BME280;6154;51.550;12.138;2023-07-13T08:30:30;100381.09;;;31.48;33.71
12182;BME280;6154;51.550;12.138;2023-07-13T08:33:00;100375.06;;;31.64;34.55
12182;BME280;6154;51.550;12.138;2023-07-13T08:35:28;100375.84;;;31.96;33.97
12182;BME280;6154;51.550;12.138;2023-07-13T08:37:57;100383.13;;;31.84;34.30
12182;BME280;6154;51.550;12.138;2023-07-13T08:40:27;100385.00;;;31.59;34.32
12182;BME280;6154;51.550;12.138;2023-07-13T08:42:57;100377.53;;;31.48;34.39
12182;BME280;6154;51.550;12.138;2023-07-13T08:45:30;100387.06;;;31.63;33.94
12182;BME280;6154;51.550;12.138;2023-07-13T08:48:05;100378.81;;;31.95;33.62
12182;BME280;6154;51.550;12.138;2023-07-13T08:50:44;100387.28;;;32.12;34.10
12182;BME280;6154;51.550;12.138;2023-07-13T08:53:33;100373.41;;;32.07;32.40
12182;BME280;6154;51.550;12.138;2023-07-13T08:56:05;100372.03;;;32.41;33.30
12182;BME280;6154;51.550;12.138;2023-07-13T08:58:36;100374.72;;;32.04;33.72
12182;BME280;6154;51.550;12.138;2023-07-13T09:01:10;100375.38;;;31.74;34.51
12182;BME280;6154;51.550;12.138;2023-07-13T09:03:48;100373.31;;;31.20;33.42
12182;BME280;6154;51.550;12.138;2023-07-13T09:06:23;100375.63;;;31.48;34.45
12182;BME280;6154;51.550;12.138;2023-07-13T09:09:00;100378.72;;;31.58;34.72
12182;BME280;6154;51.550;12.138;2023-07-13T09:11:39;100371.06;;;31.67;33.85
12182;BME280;6154;51.550;12.138;2023-07-13T09:14:31;100372.66;;;31.50;32.60
12182;BME280;6154;51.550;12.138;2023-07-13T09:17:03;100372.94;;;31.41;33.17
12182;BME280;6154;51.550;12.138;2023-07-13T09:19:34;100366.13;;;31.51;33.00
12182;BME280;6154;51.550;12.138;2023-07-13T09:22:05;100356.16;;;31.88;33.78
12182;BME280;6154;51.550;12.138;2023-07-13T09:24:49;100373.72;;;31.73;33.51
12182;BME280;6154;51.550;12.138;2023-07-13T09:27:22;100381.31;;;31.71;32.82
12182;BME280;6154;51.550;12.138;2023-07-13T09:29:56;100383.50;;;31.63;33.44
12182;BME280;6154;51.550;12.138;2023-07-13T09:32:27;100379.63;;;31.77;32.79
12182;BME280;6154;51.550;12.138;2023-07-13T09:34:58;100371.69;;;32.12;33.47
12182;BME280;6154;51.550;12.138;2023-07-13T09:37:30;100372.87;;;32.41;32.50
12182;BME280;6154;51.550;12.138;2023-07-13T09:40:01;100383.97;;;32.65;31.99
12182;BME280;6154;51.550;12.138;2023-07-13T09:42:32;100369.94;;;32.73;32.25
12182;BME280;6154;51.550;12.138;2023-07-13T09:45:02;100382.34;;;32.94;32.13
12182;BME280;6154;51.550;12.138;2023-07-13T09:47:32;100375.66;;;33.20;32.28
12182;BME280;6154;51.550;12.138;2023-07-13T09:50:06;100387.06;;;33.16;31.70
12182;BME280;6154;51.550;12.138;2023-07-13T09:52:43;100378.41;;;33.31;30.62
12182;BME280;6154;51.550;12.138;2023-07-13T09:55:25;100380.78;;;33.58;29.68
12182;BME280;6154;51.550;12.138;2023-07-13T09:57:54;100381.72;;;33.63;28.18
12182;BME280;6154;51.550;12.138;2023-07-13T10:00:26;100388.63;;;33.54;31.48
12182;BME280;6154;51.550;12.138;2023-07-13T10:02:59;100388.72;;;33.36;30.85
12182;BME280;6154;51.550;12.138;2023-07-13T10:05:37;100380.66;;;33.23;30.71
12182;BME280;6154;51.550;12.138;2023-07-13T10:08:05;100384.50;;;32.37;28.62
12182;BME280;6154;51.550;12.138;2023-07-13T10:10:34;100386.22;;;32.38;31.80
12182;BME280;6154;51.550;12.138;2023-07-13T10:13:03;100384.25;;;32.56;32.12
12182;BME280;6154;51.550;12.138;2023-07-13T10:15:32;100381.94;;;32.17;31.29
12182;BME280;6154;51.550;12.138;2023-07-13T10:18:00;100375.91;;;32.51;31.30
12182;BME280;6154;51.550;12.138;2023-07-13T10:20:31;100383.06;;;32.71;31.62
12182;BME280;6154;51.550;12.138;2023-07-13T10:23:00;100385.25;;;32.80;30.73
12182;BME280;6154;51.550;12.138;2023-07-13T10:25:32;100393.84;;;32.66;31.31
12182;BME280;6154;51.550;12.138;2023-07-13T10:28:09;100387.69;;;32.70;30.71
12182;BME280;6154;51.550;12.138;2023-07-13T10:30:41;100387.47;;;32.53;28.63
12182;BME280;6154;51.550;12.138;2023-07-13T10:33:14;100400.28;;;32.59;30.36
12182;BME280;6154;51.550;12.138;2023-07-13T10:35:44;100394.38;;;32.74;31.34
12182;BME280;6154;51.550;12.138;2023-07-13T10:38:19;100401.06;;;32.48;30.70
12182;BME280;6154;51.550;12.138;2023-07-13T10:40:54;100397.59;;;32.35;30.43
12182;BME280;6154;51.550;12.138;2023-07-13T10:43:27;100403.34;;;31.83;29.50
12182;BME280;6154;51.550;12.138;2023-07-13T10:45:58;100394.44;;;31.63;30.80
12182;BME280;6154;51.550;12.138;2023-07-13T10:48:27;100394.16;;;32.21;31.23
12182;BME280;6154;51.550;12.138;2023-07-13T10:50:57;100387.06;;;32.86;30.93
12182;BME280;6154;51.550;12.138;2023-07-13T10:53:29;100386.47;;;33.44;30.67
12182;BME280;6154;51.550;12.138;2023-07-13T10:56:00;100396.19;;;33.70;30.98
12182;BME280;6154;51.550;12.138;2023-07-13T10:58:32;100404.13;;;33.90;29.42
12182;BME280;6154;51.550;12.138;2023-07-13T11:01:06;100391.66;;;34.23;29.42
12182;BME280;6154;51.550;12.138;2023-07-13T11:03:37;100400.16;;;34.21;29.46
12182;BME280;6154;51.550;12.138;2023-07-13T11:06:13;100381.03;;;34.50;30.84
12182;BME280;6154;51.550;12.138;2023-07-13T11:08:52;100383.81;;;34.38;29.14
12182;BME280;6154;51.550;12.138;2023-07-13T11:11:36;100403.84;;;33.80;29.27
12182;BME280;6154;51.550;12.138;2023-07-13T11:14:30;100397.22;;;33.16;27.46
12182;BME280;6154;51.550;12.138;2023-07-13T11:17:37;100394.47;;;33.16;27.93
12182;BME280;6154;51.550;12.138;2023-07-13T11:20:19;100392.41;;;32.63;27.75
12182;BME280;6154;51.550;12.138;2023-07-13T11:22:51;100386.47;;;33.14;28.42
12182;BME280;6154;51.550;12.138;2023-07-13T11:25:25;100376.81;;;33.42;28.89
12182;BME280;6154;51.550;12.138;2023-07-13T11:28:14;100375.41;;;33.86;28.04
12182;BME280;6154;51.550;12.138;2023-07-13T11:30:46;100378.63;;;33.48;26.25
12182;BME280;6154;51.550;12.138;2023-07-13T11:33:18;100369.72;;;33.88;28.73
12182;BME280;6154;51.550;12.138;2023-07-13T11:35:53;100371.72;;;34.16;29.09
12182;BME280;6154;51.550;12.138;2023-07-13T11:38:32;100371.09;;;34.25;27.44
12182;BME280;6154;51.550;12.138;2023-07-13T11:41:05;100373.28;;;34.75;27.06
12182;BME280;6154;51.550;12.138;2023-07-13T11:43:34;100374.41;;;35.03;28.57
12182;BME280;6154;51.550;12.138;2023-07-13T11:46:15;100364.62;;;34.83;27.46
12182;BME280;6154;51.550;12.138;2023-07-13T11:48:44;100370.50;;;34.58;25.72
12182;BME280;6154;51.550;12.138;2023-07-13T11:51:20;100377.03;;;34.69;28.38
12182;BME280;6154;51.550;12.138;2023-07-13T11:53:53;100362.19;;;34.18;26.15
12182;BME280;6154;51.550;12.138;2023-07-13T11:56:25;100377.97;;;33.99;26.64
12182;BME280;6154;51.550;12.138;2023-07-13T11:58:56;100373.13;;;34.53;28.60
12182;BME280;6154;51.550;12.138;2023-07-13T12:01:27;100370.41;;;34.30;27.98
12182;BME280;6154;51.550;12.138;2023-07-13T12:04:01;100370.28;;;34.13;27.47
12182;BME280;6154;51.550;12.138;2023-07-13T12:06:31;100376.41;;;34.39;28.28
12182;BME280;6154;51.550;12.138;2023-07-13T12:09:11;100369.81;;;34.80;28.00
12182;BME280;6154;51.550;12.138;2023-07-13T12:11:42;100370.41;;;35.10;25.79
12182;BME280;6154;51.550;12.138;2023-07-13T12:14:14;100375.94;;;34.70;26.52
12182;BME280;6154;51.550;12.138;2023-07-13T12:16:44;100370.62;;;34.92;25.25
12182;BME280;6154;51.550;12.138;2023-07-13T12:19:23;100362.63;;;34.91;27.17
12182;BME280;6154;51.550;12.138;2023-07-13T12:21:54;100378.44;;;34.72;24.76
12182;BME280;6154;51.550;12.138;2023-07-13T12:24:25;100365.56;;;35.01;26.79
12182;BME280;6154;51.550;12.138;2023-07-13T12:26:59;100371.81;;;34.84;26.43
12182;BME280;6154;51.550;12.138;2023-07-13T12:29:29;100369.59;;;35.10;25.62
12182;BME280;6154;51.550;12.138;2023-07-13T12:31:57;100376.31;;;34.62;26.18
12182;BME280;6154;51.550;12.138;2023-07-13T12:34:26;100370.81;;;34.62;27.04
12182;BME280;6154;51.550;12.138;2023-07-13T12:36:56;100377.28;;;34.68;26.15
12182;BME280;6154;51.550;12.138;2023-07-13T12:39:33;100375.56;;;34.78;27.09
12182;BME280;6154;51.550;12.138;2023-07-13T12:42:18;100385.53;;;34.96;25.42
12182;BME280;6154;51.550;12.138;2023-07-13T12:44:48;100379.69;;;35.21;24.69
12182;BME280;6154;51.550;12.138;2023-07-13T12:47:20;100380.16;;;35.47;27.08
12182;BME280;6154;51.550;12.138;2023-07-13T12:49:52;100370.91;;;35.53;26.05
12182;BME280;6154;51.550;12.138;2023-07-13T12:52:24;100377.81;;;35.72;26.40
12182;BME280;6154;51.550;12.138;2023-07-13T12:55:04;100372.47;;;35.82;26.27
12182;BME280;6154;51.550;12.138;2023-07-13T12:57:39;100368.38;;;36.02;26.09
12182;BME280;6154;51.550;12.138;2023-07-13T13:00:24;100372.66;;;35.92;25.36
12182;BME280;6154;51.550;12.138;2023-07-13T13:02:55;100382.13;;;35.34;23.48
12182;BME280;6154;51.550;12.138;2023-07-13T13:05:44;100383.25;;;35.50;25.54
12182;BME280;6154;51.550;12.138;2023-07-13T13:08:15;100382.19;;;35.68;26.89
12182;BME280;6154;51.550;12.138;2023-07-13T13:10:45;100367.81;;;35.99;26.26